Date,TemperatureHighF,TemperatureAvgF,TemperatureLowF,DewpointHighF,DewpointAvgF,DewpointLowF,HumidityHigh,HumidityAvg,HumidityLow,PressureMaxIn,PressureMinIn,WindSpeedMaxMPH,WindSpeedAvgMPH,GustSpeedMaxMPH,PrecipitationSumIn
2014-1-1,51,44,36,43,38,32,89,78,68,30.39,30.16,1,0,3,0.00
2014-1-2,51,46,35,51,44,28,97,92,76,30.16,29.73,19,1,22,0.40
2014-1-3,37,30,24,27,16,13,74,57,39,30.45,29.91,16,3,24,0.00
2014-1-4,39,33,25,30,21,14,76,62,56,30.49,30.25,4,0,10,0.00
2014-1-5,52,41,36,52,39,30,97,91,77,30.24,29.82,5,0,7,0.07
2014-1-6,57,38,17,57,29,2,98,71,45,30.35,29.74,13,4,26,0.09
2014-1-7,26,18,10,9,5,1,69,57,43,30.57,30.34,8,1,14,0.00
2014-1-8,43,28,15,16,12,9,80,54,27,30.62,30.51,4,0,7,0.00
2014-1-9,54,42,31,42,26,15,80,53,44,30.54,30.37,2,0,8,0.01
2014-1-10,52,48,46,51,47,41,98,94,78,30.36,30.07,7,0,11,1.01
2014-1-11,67,60,50,66,60,47,99,98,88,30.06,29.71,11,2,21,0.64
2014-1-12,57,48,40,46,39,36,89,73,50,30.22,29.86,9,1,11,0.00
2014-1-13,61,48,35,49,41,33,95,78,54,30.20,29.90,3,0,7,0.08
2014-1-14,60,52,40,54,47,35,97,85,53,30.00,29.82,5,0,12,0.10
2014-1-15,60,44,33,42,35,26,94,71,46,30.01,29.86,8,1,16,0.01
2014-1-16,44,36,27,27,23,21,83,61,40,30.11,29.98,5,1,11,0.00
2014-1-17,56,43,32,38,28,21,72,57,34,30.11,29.91,8,1,15,0.00
2014-1-18,43,36,28,23,18,15,60,49,37,30.19,30.01,13,2,19,0.00
2014-1-19,56,45,34,35,28,19,65,53,40,30.08,30.00,10,1,17,0.00
2014-1-20,66,50,35,33,29,27,73,49,27,30.05,29.91,5,1,13,0.00
2014-1-21,59,46,34,43,32,22,84,60,38,29.90,29.61,17,3,30,0.00
2014-1-22,38,30,22,22,14,5,70,53,31,30.16,29.89,8,1,15,0.00
2014-1-23,43,32,23,15,11,5,60,42,30,30.43,30.17,9,1,13,0.00
2014-1-24,31,25,19,10,2,-1,48,37,26,30.64,30.34,9,1,14,0.00
2014-1-25,51,34,17,23,14,2,68,46,32,30.34,29.83,9,2,23,0.00
2014-1-26,55,43,30,34,27,19,71,55,42,30.05,29.93,4,0,11,0.00
2014-1-27,65,52,43,47,41,33,80,68,51,29.99,29.85,8,1,16,0.02
2014-1-28,46,36,25,38,23,11,91,62,35,30.21,29.99,8,1,15,0.00
2014-1-29,30,26,21,24,22,17,92,85,75,30.38,30.17,5,0,8,0.00
2014-1-30,37,25,16,19,16,11,88,69,46,30.41,30.24,4,0,10,0.09
2014-1-31,52,34,18,28,20,14,85,61,36,30.30,30.18,5,0,5,0.16
2014-2-1,46,42,32,44,36,23,95,80,54,30.22,30.13,3,0,8,0.09
2014-2-2,63,52,44,57,49,43,98,91,77,30.19,30.00,4,0,7,0.00
2014-2-3,67,62,54,63,60,53,96,91,83,30.12,29.95,7,1,13,0.03
2014-2-4,56,44,41,55,43,40,96,94,84,30.29,30.09,8,0,14,0.19
2014-2-5,62,50,40,60,45,32,99,84,54,30.13,29.92,9,2,17,0.14
2014-2-6,46,40,32,34,31,28,87,71,54,30.34,30.14,7,0,15,0.05
2014-2-7,53,41,30,39,34,28,95,79,54,30.36,30.25,2,0,6,0.01
2014-2-8,58,46,37,41,38,33,89,74,52,30.28,30.11,4,0,7,0.00
2014-2-9,62,49,37,47,41,34,95,75,51,30.17,30.01,6,0,13,0.00
2014-2-10,60,47,39,47,41,36,93,79,61,30.16,30.03,4,0,13,0.01
2014-2-11,43,36,32,38,34,30,95,93,82,30.33,30.14,8,1,14,0.51
2014-2-12,32,30,29,30,28,27,95,93,93,30.32,30.10,4,0,9,0.11
2014-2-18,62,61,58,56,52,48,83,72,67,30.14,30.08,2,0,7,0.00
2014-2-19,78,66,57,58,56,54,95,74,49,30.10,29.99,11,2,18,0.00
2014-2-20,80,67,54,62,57,50,90,73,49,30.14,29.99,12,2,19,0.00
2014-2-21,66,60,45,63,51,33,96,75,41,30.06,29.89,8,2,14,0.34
2014-2-22,66,52,36,42,34,30,80,55,31,30.19,30.06,4,0,13,0.00
2014-2-23,63,54,41,54,47,38,95,78,58,30.12,29.95,4,0,7,0.00
2014-2-24,70,58,50,54,46,37,96,67,37,30.09,29.94,7,0,11,0.00
2014-2-25,68,57,46,50,45,36,92,67,38,30.06,29.92,9,1,16,0.00
2014-2-26,57,46,38,48,42,35,94,86,71,29.91,29.80,4,0,9,1.28
2014-2-27,57,41,28,35,27,19,92,63,29,29.98,29.85,9,1,13,0.00
2014-2-28,57,43,28,36,25,16,72,51,35,30.21,29.97,12,1,14,0.00
2014-3-1,62,49,39,43,37,31,76,65,45,30.33,30.16,5,0,9,0.00
2014-3-2,73,57,41,52,46,38,95,68,46,30.26,29.99,7,1,12,0.00
2014-3-3,65,54,34,61,49,32,91,83,71,30.16,29.83,12,2,23,0.00
2014-3-4,36,33,28,31,24,21,89,70,58,30.29,30.15,10,2,14,0.00
2014-3-5,51,40,33,42,34,23,92,80,61,30.21,30.10,5,0,9,0.08
2014-3-6,40,36,34,35,30,21,94,82,54,30.22,29.93,10,3,18,0.61
2014-3-7,45,40,36,43,38,35,96,94,89,30.07,29.86,9,3,19,0.16
2014-3-8,69,51,33,51,43,32,97,75,47,30.17,30.05,5,0,11,0.00
2014-3-9,75,60,46,50,47,42,90,64,41,30.13,30.02,6,1,13,0.00
2014-3-10,76,62,47,51,46,40,76,57,39,30.06,29.87,9,1,18,0.00
2014-3-11,81,65,48,56,51,43,85,62,39,29.91,29.72,7,1,13,0.00
2014-3-12,76,62,47,63,54,30,98,76,53,29.80,29.45,15,4,33,0.13
2014-3-13,54,44,35,31,25,22,68,48,32,30.25,29.80,13,3,23,0.00
2014-3-14,65,48,31,38,28,19,79,49,26,30.35,30.15,9,1,16,0.00
2014-3-15,74,59,49,47,43,39,78,58,37,30.16,30.01,8,1,12,0.00
2014-3-16,60,56,54,59,53,44,98,89,60,30.04,29.66,6,0,10,1.25
2014-3-17,59,45,36,58,44,35,96,95,94,29.90,29.68,7,1,13,0.20
2014-3-18,44,39,34,41,37,33,96,92,86,30.15,29.84,9,2,18,0.02
2014-3-19,61,48,41,51,44,40,100,87,67,30.20,30.04,5,0,12,0.01
2014-3-20,74,58,45,52,42,31,96,62,29,30.09,29.97,6,1,14,0.00
2014-3-21,72,57,40,38,33,28,69,42,24,30.18,30.05,8,0,9,0.00
2014-3-22,79,63,50,57,48,38,85,62,35,30.10,29.95,5,0,11,0.00
2014-3-23,71,59,49,57,51,42,95,76,59,30.11,29.88,18,2,18,0.00
2014-3-24,59,48,39,43,35,31,92,65,36,30.25,30.05,11,1,15,0.00
2014-3-25,57,46,38,45,33,20,89,63,35,30.11,29.82,17,3,27,0.02
2014-3-26,55,40,25,23,20,18,77,48,26,30.33,30.11,6,1,11,0.00
2014-3-27,67,50,33,48,33,19,82,55,33,30.44,30.24,9,1,14,0.00
2014-3-28,61,56,49,60,54,47,97,93,80,30.27,30.03,3,0,7,0.46
2014-3-29,76,65,54,64,59,45,98,83,60,30.06,29.69,18,2,24,0.04
2014-3-30,68,55,43,44,37,32,77,54,27,30.06,29.81,15,4,25,0.00
2014-3-31,78,58,38,37,32,27,79,44,18,30.16,30.06,4,0,11,0.00
2014-4-1,85,67,48,47,39,34,65,40,19,30.16,30.04,8,1,11,0.00
2014-4-2,86,69,51,49,41,35,71,41,17,30.15,30.04,5,1,13,0.00
2014-4-3,86,72,58,59,52,42,75,51,29,30.09,29.94,7,1,13,0.00
2014-4-4,82,71,57,63,58,52,88,66,51,29.99,29.83,8,2,18,0.00
2014-4-5,82,68,57,58,50,36,92,57,22,30.02,29.90,12,1,14,0.00
2014-4-6,60,58,54,51,45,40,76,63,51,30.11,29.99,8,0,11,0.00
2014-4-7,62,57,52,61,54,46,98,91,73,30.02,29.73,9,1,27,1.27
2014-4-8,68,60,52,64,53,46,98,79,55,29.73,29.64,8,2,15,0.04
2014-4-9,73,59,46,49,44,41,84,61,36,30.13,29.73,11,1,15,0.00
2014-4-10,76,61,45,44,41,36,79,51,30,30.28,30.14,5,0,12,0.00
2014-4-11,78,65,49,55,50,42,88,61,44,30.29,30.11,10,1,14,0.00
2014-4-12,82,68,51,59,54,49,94,65,39,30.23,30.10,6,0,11,0.00
2014-4-13,81,69,56,64,58,53,92,69,50,30.21,30.05,6,0,9,0.00
2014-4-14,82,71,62,67,62,58,98,77,53,30.08,29.80,6,1,12,1.33
2014-4-15,70,63,45,68,60,33,98,90,63,30.03,29.64,10,2,20,0.29
2014-4-16,60,47,36,35,32,27,77,58,36,30.36,30.04,13,2,18,0.00
2014-4-17,68,53,40,44,38,32,83,58,35,30.48,30.33,9,1,14,0.00
2014-4-18,57,53,51,51,48,43,96,84,63,30.36,30.02,13,2,18,1.22
2014-4-19,58,53,51,55,52,50,97,94,89,30.13,29.98,11,2,17,0.32
2014-4-20,72,59,48,52,48,45,99,71,48,30.21,30.11,9,2,19,0.07
2014-4-21,77,62,49,49,45,42,79,56,34,30.16,29.95,5,0,14,0.00
2014-4-22,83,64,52,63,56,45,97,77,49,29.95,29.77,8,1,14,0.15
2014-4-23,82,67,56,63,56,46,98,72,36,29.92,29.78,5,0,10,0.01
2014-4-24,82,68,55,60,49,38,84,53,34,30.07,29.92,6,0,11,0.00
2014-4-25,81,69,59,67,61,55,96,77,51,29.95,29.78,9,1,13,0.00
2014-4-26,83,69,53,55,51,45,90,58,27,30.05,29.89,4,0,13,0.00
2014-4-27,87,71,55,65,59,53,95,69,42,30.03,29.91,2,0,9,0.00
2014-4-28,85,74,64,71,66,62,95,76,56,29.95,29.81,9,0,13,0.00
2014-4-29,79,73,68,70,67,65,93,81,66,29.95,29.80,9,0,15,0.00
2014-4-30,76,71,67,70,66,63,97,85,71,30.02,29.87,6,0,14,0.14
2014-5-1,73,65,57,66,62,56,94,89,79,29.96,29.89,5,1,11,0.06
2014-5-2,69,59,53,56,53,50,96,82,53,29.99,29.89,3,0,5,0.02
2014-5-3,76,63,50,54,50,47,94,65,36,30.00,29.90,9,1,15,0.00
2014-5-4,88,70,52,59,53,48,87,58,33,30.07,29.93,5,0,14,0.00
2014-5-5,92,76,60,64,58,52,77,55,32,30.02,29.87,7,1,12,0.00
2014-5-6,91,77,61,64,60,56,86,59,37,29.98,29.89,9,1,15,0.00
2014-5-7,91,75,59,64,58,53,83,57,34,30.12,29.98,6,0,12,0.00
2014-5-8,92,76,61,70,63,56,92,65,38,30.22,30.10,3,0,12,0.00
2014-5-9,89,77,66,73,66,61,96,71,46,30.18,30.06,7,0,12,0.00
2014-5-10,82,74,67,72,68,62,95,80,67,30.11,30.02,6,0,10,0.00
2014-5-11,87,74,64,72,67,63,97,82,57,30.16,30.06,7,0,7,0.00
2014-5-12,90,77,65,72,68,64,98,76,50,30.20,30.09,5,0,8,0.00
2014-5-13,88,77,66,71,67,64,96,73,51,30.18,30.07,4,0,7,0.00
2014-5-14,87,75,64,71,67,63,98,78,50,30.14,29.98,8,0,15,0.00
2014-5-15,74,68,57,71,67,55,99,96,87,30.01,29.85,10,1,15,2.25
2014-5-16,74,61,48,54,49,43,94,69,46,30.11,29.92,9,1,17,0.07
2014-5-17,77,62,45,52,47,42,90,63,38,30.21,30.12,5,0,11,0.01
2014-5-18,70,61,56,59,55,50,91,82,65,30.25,30.17,4,0,8,0.00
2014-5-19,76,64,52,58,54,51,97,75,48,30.29,30.19,2,0,14,0.00
2014-5-20,82,68,52,64,58,49,96,71,52,30.30,30.14,4,0,9,0.00
2014-5-21,90,75,60,69,60,53,82,62,39,30.17,30.02,13,1,15,0.00
2014-5-22,93,79,67,71,64,59,78,62,43,30.06,29.93,11,1,17,0.00
2014-5-23,94,81,68,73,68,64,91,67,44,30.02,29.93,5,0,12,0.00
2014-5-24,86,76,68,67,62,56,88,63,45,30.11,29.98,3,0,14,0.00
2014-5-25,86,73,67,70,66,61,93,78,58,30.19,30.06,6,0,12,0.15
2014-5-26,86,74,62,72,67,60,96,79,58,30.24,30.10,8,0,8,0.00
2014-5-27,86,75,68,75,70,66,97,85,68,30.15,30.01,3,0,13,0.00
2014-5-28,88,75,67,75,69,65,95,83,60,30.07,29.98,4,0,9,0.03
2014-5-29,90,76,65,73,69,63,97,80,53,30.06,29.96,3,0,8,0.19
2014-5-30,84,74,67,74,70,67,98,87,69,30.07,29.98,1,0,11,0.08
2014-5-31,83,73,68,76,70,66,97,91,73,30.14,30.04,3,0,8,0.21
2014-6-1,82,72,65,68,63,56,94,73,49,30.26,30.14,8,1,14,0.00
2014-6-2,80,70,56,66,59,53,94,72,52,30.26,30.12,2,0,7,0.00
2014-6-3,86,76,67,70,67,64,91,76,56,30.15,29.97,4,0,9,0.00
2014-6-4,92,79,66,76,70,65,95,75,53,29.99,29.83,4,0,11,0.00
2014-6-5,93,80,72,76,72,69,93,75,53,29.87,29.78,5,0,16,0.00
2014-6-6,91,78,70,75,71,68,96,80,57,29.92,29.82,7,0,16,0.07
2014-6-7,84,74,68,76,72,67,98,91,75,29.98,29.85,4,0,11,0.30
2014-6-8,88,78,72,77,73,70,98,86,61,29.98,29.83,3,0,9,0.01
2014-6-9,92,81,70,77,73,69,97,79,57,29.93,29.84,5,0,11,0.00
2014-6-10,94,83,71,78,73,68,96,74,51,29.98,29.88,8,0,18,0.58
2014-6-11,86,72,66,76,69,66,99,92,68,29.99,29.85,6,0,12,0.74
2014-6-12,83,73,68,74,70,68,99,91,70,29.93,29.82,3,0,7,0.06
2014-6-13,87,75,67,75,71,65,97,86,62,29.91,29.83,6,0,8,0.13
2014-6-14,88,77,68,73,70,67,97,80,56,30.02,29.92,4,0,6,0.00
2014-6-15,91,80,68,74,71,68,98,76,54,30.12,30.01,1,0,8,0.00
2014-6-16,93,81,70,77,72,68,98,76,49,30.18,30.07,0,0,6,0.00
2014-6-17,92,81,69,76,72,68,97,75,53,30.19,30.07,3,0,6,0.00
2014-6-18,92,80,66,74,70,64,96,73,52,30.16,30.07,2,0,6,0.00
2014-6-19,94,82,69,76,72,68,97,74,50,30.14,30.01,5,0,8,0.00
2014-6-20,96,83,70,74,72,69,97,70,47,30.04,29.90,4,0,7,0.00
2014-6-21,97,83,70,77,72,68,95,71,42,29.93,29.77,8,1,13,0.00
2014-6-22,94,81,70,74,70,67,92,71,47,29.91,29.80,6,0,12,0.00
2014-6-23,89,77,70,76,71,69,97,83,57,30.07,29.89,9,0,13,0.00
2014-6-24,88,77,71,76,72,70,98,86,65,30.09,29.97,8,0,14,0.70
2014-6-25,92,80,70,77,73,70,99,82,57,30.05,29.92,7,0,11,0.01
2014-6-26,94,82,70,75,71,69,95,73,48,30.02,29.90,7,1,11,0.00
2014-6-27,90,79,70,74,71,67,93,78,58,30.07,29.96,5,0,11,0.00
2014-6-28,91,79,72,77,72,70,98,81,57,30.16,30.05,6,0,9,1.03
2014-6-29,88,78,71,77,73,71,99,87,66,30.20,30.08,4,0,15,0.00
2014-6-30,90,79,71,78,74,69,97,83,61,30.11,29.94,5,0,9,0.00
2014-7-1,94,82,71,78,75,70,97,80,57,30.00,29.88,3,0,6,0.00
2014-7-2,96,84,74,78,75,70,91,73,56,29.96,29.90,5,0,9,0.00
2014-7-3,95,82,73,79,74,69,95,77,56,29.95,29.85,15,0,19,0.00
2014-7-4,90,78,64,71,67,62,93,70,48,30.11,29.94,3,0,10,0.00
2014-7-5,86,77,69,68,64,56,83,64,53,30.21,30.11,9,0,17,0.00
2014-7-6,88,78,70,72,70,66,92,77,54,30.15,30.02,6,0,11,0.00
2014-7-7,88,79,71,77,72,69,97,81,63,30.07,29.95,4,0,9,0.00
2014-7-8,96,83,70,74,69,66,88,65,42,30.07,29.94,6,1,17,0.00
2014-7-9,96,82,71,74,69,66,93,68,41,30.03,29.93,11,1,19,0.01
2014-7-10,93,79,70,75,72,68,97,79,53,30.09,29.97,6,0,15,0.19
2014-7-11,86,77,72,77,74,71,98,89,71,30.17,30.07,6,0,7,0.01
2014-7-12,93,80,71,76,72,69,97,80,48,30.20,30.09,3,0,10,0.00
2014-7-13,92,80,70,75,72,68,97,78,53,30.16,29.99,4,0,7,0.00
2014-7-14,96,82,73,78,74,72,98,80,50,30.05,29.90,7,0,13,0.00
2014-7-15,92,78,73,78,74,71,97,86,57,29.92,29.79,7,0,12,0.38
2014-7-16,88,78,72,73,70,66,97,77,50,29.89,29.80,3,0,7,0.00
2014-7-17,89,78,68,72,68,65,94,72,51,30.03,29.89,4,0,10,0.00
2014-7-18,90,79,69,72,68,66,96,71,48,30.13,30.03,5,0,8,0.00
2014-7-19,82,74,70,75,70,67,97,89,74,30.10,30.02,5,0,7,0.51
2014-7-20,86,76,71,77,74,71,98,92,74,30.07,29.99,3,0,7,0.15
2014-7-21,88,77,71,78,74,71,99,91,66,30.10,29.99,3,0,16,1.07
2014-7-22,88,77,70,78,74,70,99,91,66,30.11,30.02,2,0,7,0.12
2014-7-23,91,80,71,78,74,70,99,84,62,30.08,29.94,6,0,8,0.00
2014-7-24,94,82,73,78,74,71,97,79,56,29.96,29.86,11,1,16,0.00
2014-7-25,91,80,72,78,74,71,98,84,60,30.02,29.92,3,0,11,1.43
2014-7-26,92,80,70,80,73,68,99,81,52,30.02,29.94,2,0,9,0.01
2014-7-27,96,83,72,79,74,69,93,75,55,29.98,29.88,10,1,14,0.00
2014-7-28,96,85,75,80,73,63,86,69,43,29.89,29.77,12,2,18,0.00
2014-7-29,87,77,66,67,64,61,83,65,48,29.95,29.86,4,0,11,0.00
2014-7-30,88,77,68,71,66,61,83,70,54,30.02,29.94,3,0,8,0.00
2014-7-31,84,74,71,75,71,68,93,88,73,30.05,30.00,7,0,10,0.07
2014-8-1,83,73,68,74,69,67,96,89,70,30.06,29.98,9,1,15,0.00
2014-8-2,75,70,69,72,69,67,98,95,88,30.08,30.01,4,0,10,0.58
2014-8-3,85,76,68,77,71,68,98,86,68,30.08,29.98,4,0,10,0.00
2014-8-4,88,77,70,75,72,69,98,86,64,30.06,29.97,5,0,11,0.00
2014-8-5,91,79,70,75,71,68,98,80,52,30.05,29.96,5,0,11,0.00
2014-8-6,94,79,66,75,68,63,94,72,44,30.02,29.92,9,1,12,0.00
2014-8-7,96,83,70,75,70,67,92,68,44,29.98,29.89,9,1,12,0.00
2014-8-8,93,79,71,78,71,66,98,78,58,30.05,29.94,10,0,20,0.60
2014-8-9,87,77,70,79,74,70,99,91,73,30.05,29.94,1,0,6,0.05
2014-8-10,84,76,73,78,74,72,98,94,77,30.04,29.95,5,0,6,0.97
2014-8-11,87,78,73,78,75,72,99,89,70,30.02,29.89,3,0,5,0.00
2014-8-12,90,79,73,79,75,71,98,88,66,29.92,29.79,6,0,16,0.09
2014-8-13,91,79,70,75,69,62,98,75,41,29.95,29.84,7,0,13,0.00
2014-8-14,88,76,67,69,65,61,83,68,47,30.04,29.94,5,0,11,0.00
2014-8-15,89,78,67,77,71,66,98,81,56,30.02,29.92,1,0,10,0.06
2014-8-16,75,75,74,73,73,73,94,93,92,29.96,29.96,0,0,1,0.00
2014-9-14,73,72,70,71,69,68,95,92,90,30.20,30.14,4,0,7,0.55
2014-9-15,75,71,67,73,70,67,98,96,92,30.19,30.10,1,0,7,0.20
2014-9-16,87,68,68,77,65,67,98,78,66,30.11,29.91,5,0,9,0.11
2014-9-17,83,70,66,76,69,66,99,93,74,29.95,29.85,7,0,7,1.23
2014-9-18,81,70,65,73,68,65,99,90,72,29.99,29.89,0,0,5,0.00
2014-9-19,81,64,66,73,62,66,98,83,73,30.12,29.98,13,1,14,0.41
2014-9-20,82,50,64,68,45,62,95,55,59,30.12,29.98,8,1,13,0.01
2014-9-21,87,46,73,70,39,65,81,38,53,30.00,29.87,5,1,12,0.00
2014-9-22,72,68,64,68,65,62,96,88,77,30.11,29.92,7,0,8,0.32
2014-9-23,74,60,58,66,56,55,96,78,74,30.23,30.06,5,0,17,0.00
2014-9-24,65,23,59,59,22,57,93,33,78,30.26,30.20,15,2,15,0.00
2014-9-25,71,45,63,67,44,62,98,62,88,30.20,30.12,6,0,9,0.00
2014-9-26,71,68,65,67,65,64,97,92,85,30.17,30.09,10,0,10,0.01
2014-9-27,78,71,66,67,64,63,93,80,66,30.16,30.09,7,0,12,0.00
2014-9-28,78,64,66,69,59,64,93,73,71,30.14,30.03,7,0,10,0.00
2014-9-29,73,70,68,70,67,65,97,90,83,30.04,29.92,5,0,9,0.17
2014-9-30,82,67,62,68,61,60,96,78,59,29.94,29.84,4,0,6,0.00
2014-10-1,85,47,66,69,40,63,97,43,51,30.02,29.90,4,0,6,0.00
2014-10-2,85,72,61,69,64,60,98,78,52,30.11,30.02,3,0,7,0.00
2014-10-3,80,72,63,76,70,62,99,93,81,30.06,29.81,8,1,11,0.17
2014-10-4,70,64,51,70,52,37,98,68,36,29.95,29.79,11,2,17,0.02
2014-10-5,70,54,40,46,41,38,94,66,32,30.07,29.94,5,0,13,0.00
2014-10-6,77,61,46,54,48,41,89,65,39,30.14,30.02,7,0,11,0.00
2014-10-7,80,68,54,63,59,52,95,74,54,30.15,30.01,10,0,10,0.00
2014-10-8,89,74,62,70,65,60,93,75,47,30.10,30.00,8,1,14,0.00
2014-10-9,85,72,61,67,63,57,97,75,49,30.14,30.04,4,0,8,0.00
2014-10-10,85,75,63,73,67,57,93,77,61,30.12,29.99,6,0,10,0.00
2014-10-11,89,77,69,73,69,66,98,79,52,30.05,29.94,6,1,14,0.00
2014-10-12,84,72,67,73,68,65,96,86,66,30.14,29.99,6,0,13,0.00
2014-10-13,86,74,67,74,69,66,98,86,60,30.18,30.04,4,0,10,0.00
2014-10-14,79,73,69,73,71,68,97,93,79,30.04,29.80,9,2,14,0.29
2014-10-15,72,64,56,67,58,53,96,80,53,29.92,29.84,5,0,12,0.03
2014-10-16,67,60,53,56,53,50,90,79,65,29.93,29.82,11,1,16,0.00
2014-10-17,78,61,46,59,52,44,96,75,44,30.00,29.87,5,0,11,0.00
2014-10-18,82,67,56,62,55,51,93,67,43,29.97,29.80,7,1,17,0.00
2014-10-19,70,58,50,53,48,44,86,70,50,30.14,29.96,5,0,9,0.00
2014-10-20,74,58,45,57,50,44,97,78,52,30.15,29.97,6,0,10,0.00
2014-10-21,78,62,49,57,52,47,96,73,39,29.99,29.86,8,1,16,0.00
2014-10-22,68,56,45,50,44,41,85,67,43,30.10,29.96,5,0,15,0.00
2014-10-23,70,55,42,49,44,38,90,67,43,30.12,29.99,6,0,11,0.00
2014-10-24,73,58,49,52,48,44,86,70,43,30.08,29.97,0,0,8,0.00
2014-10-25,75,57,44,53,46,42,95,70,35,30.05,29.95,4,0,8,0.00
2014-10-26,87,64,49,60,52,46,95,68,31,29.98,29.89,7,0,12,0.00
2014-10-27,85,68,52,61,55,50,94,67,38,30.09,29.96,3,0,6,0.00
2014-10-28,84,69,56,66,59,54,95,73,46,30.15,30.05,3,0,9,0.00
2014-10-29,79,68,58,66,61,54,90,80,60,30.08,29.93,10,0,12,0.00
2014-10-30,70,61,52,63,50,44,89,68,46,30.03,29.93,7,1,16,0.00
2014-10-31,69,57,47,53,46,43,91,70,46,29.94,29.78,6,0,13,0.00
2014-11-1,54,44,35,44,37,33,94,79,63,30.14,29.75,12,4,22,0.60
2014-11-2,57,43,31,35,32,28,93,68,36,30.37,30.14,7,1,14,0.00
2014-11-3,63,47,34,37,32,28,89,59,28,30.49,30.37,4,0,7,0.00
2014-11-4,69,52,38,45,39,33,85,63,29,30.41,30.26,4,0,8,0.00
2014-11-5,73,60,50,61,55,45,94,82,64,30.32,30.18,1,0,6,0.00
2014-11-6,77,65,57,65,58,39,95,79,52,30.18,29.85,19,2,19,0.00
2014-11-7,61,49,38,42,38,32,88,66,45,30.08,29.93,5,0,12,0.00
2014-11-8,59,48,36,46,40,34,92,77,54,30.07,29.97,2,0,9,0.00
2014-11-9,65,52,44,47,44,40,93,74,43,30.02,29.91,2,0,8,0.00
2014-11-10,69,54,42,49,45,40,96,73,46,30.10,30.00,5,0,11,0.00
2014-11-11,74,60,50,60,51,43,82,72,58,30.02,29.90,5,0,11,0.00
2014-11-12,76,61,48,63,54,43,89,79,62,30.02,29.95,5,0,10,0.00
2014-11-13,59,53,44,55,46,35,90,78,66,30.05,29.96,6,1,11,0.00
2014-11-14,45,40,32,38,34,27,86,78,71,30.30,30.02,10,1,14,0.00
2014-11-15,48,37,28,26,22,17,77,58,42,30.46,30.29,7,0,11,0.00
2014-11-16,54,46,34,42,34,23,82,64,56,30.35,30.05,2,0,7,0.00
2014-11-17,67,53,36,65,49,29,98,89,75,30.04,29.70,13,3,20,0.49
2014-11-18,39,32,26,29,20,16,77,63,44,30.37,30.03,14,3,18,0.00
2014-11-19,47,32,18,22,18,12,84,58,32,30.45,30.31,5,0,8,0.00
2014-11-20,62,44,27,41,30,18,78,61,45,30.31,30.14,8,1,15,0.00